Time;durP1;ratioP1;P1;durP2;ratioP2;P2;SDS_P1;SDS_P2;PMS_P1;PMS_P2;Temp;Humidity;BMP_temperature;BMP_pressure;BME280_temperature;BME280_humidity;BME280_pressure;Samples;Min_cycle;Max_cycle;Signal;HPM_P1;HPM_P2
2022/10/19 00:01:04;;;;;;;0.90;0.90;;;;;;;;;;4952659;28;20221;-53
2022/10/19 00:03:30;;;;;;;0.90;0.90;;;;;;;;;;4986585;28;20229;-54
2022/10/19 00:05:56;;;;;;;0.70;0.70;;;;;;;;;;4987322;28;20888;-53
2022/10/19 00:08:22;;;;;;;0.90;0.90;;;;;;;;;;4962590;28;20237;-52
2022/10/19 00:10:48;;;;;;;1.00;1.00;;;;;;;;;;4991331;28;20217;-54
2022/10/19 00:13:14;;;;;;;0.80;0.80;;;;;;;;;;4981786;28;20256;-54
2022/10/19 00:15:40;;;;;;;1.00;1.00;;;;;;;;;;4980914;28;20220;-53
2022/10/19 00:18:06;;;;;;;1.00;1.00;;;;;;;;;;4994331;28;20256;-52
2022/10/19 00:20:33;;;;;;;1.00;1.00;;;;;;;;;;4998594;28;20898;-54
2022/10/19 00:22:58;;;;;;;1.20;1.20;;;;;;;;;;4987843;28;20681;-52
2022/10/19 00:25:24;;;;;;;1.00;1.00;;;;;;;;;;4997305;28;20224;-54
2022/10/19 00:27:50;;;;;;;1.20;1.20;;;;;;;;;;5003172;28;20240;-54
2022/10/19 00:30:16;;;;;;;0.90;0.90;;;;;;;;;;5001174;28;20573;-53
2022/10/19 00:32:42;;;;;;;0.80;0.80;;;;;;;;;;5004889;28;20688;-54
2022/10/19 00:35:08;;;;;;;0.83;0.83;;;;;;;;;;4997519;28;20308;-53
2022/10/19 00:37:34;;;;;;;0.90;0.90;;;;;;;;;;4997598;28;20248;-54
2022/10/19 00:40:00;;;;;;;0.90;0.90;;;;;;;;;;5002411;28;20229;-54
2022/10/19 00:42:26;;;;;;;1.40;1.40;;;;;;;;;;4999731;28;20240;-53
2022/10/19 00:44:52;;;;;;;1.20;1.20;;;;;;;;;;5000807;28;20640;-52
2022/10/19 00:47:18;;;;;;;1.20;1.20;;;;;;;;;;4989261;28;20609;-54
2022/10/19 00:49:44;;;;;;;1.30;1.30;;;;;;;;;;4998878;28;20591;-53
2022/10/19 00:52:11;;;;;;;1.40;1.40;;;;;;;;;;4999591;28;20225;-54
2022/10/19 00:54:37;;;;;;;1.50;1.50;;;;;;;;;;4968371;28;20320;-54
2022/10/19 00:57:04;;;;;;;1.23;1.23;;;;;;;;;;4979608;28;20226;-53
2022/10/19 00:59:32;;;;;;;1.30;1.30;;;;;;;;;;4978881;28;20248;-54
2022/10/19 01:01:58;;;;;;;1.40;1.40;;;;;;;;;;4969648;28;20719;-52
2022/10/19 01:04:25;;;;;;;1.30;1.30;;;;;;;;;;4988037;28;20221;-53
2022/10/19 01:06:51;;;;;;;1.40;1.40;;;;;;;;;;4960448;28;20237;-53
2022/10/19 01:09:17;;;;;;;1.30;1.30;;;;;;;;;;4979865;28;20724;-53
2022/10/19 01:11:42;;;;;;;1.40;1.40;;;;;;;;;;4988850;28;20221;-51
2022/10/19 01:14:24;;;;;;;1.10;1.10;;;;;;;;;;4986395;28;20222;-51
2022/10/19 01:16:59;;;;;;;1.20;1.20;;;;;;;;;;4961900;28;20252;-53
2022/10/19 01:19:31;;;;;;;1.20;1.20;;;;;;;;;;4966566;28;20327;-53
2022/10/19 01:22:02;;;;;;;1.50;1.50;;;;;;;;;;4983230;28;20295;-54
2022/10/19 01:24:32;;;;;;;1.40;1.40;;;;;;;;;;4975256;28;20307;-54
2022/10/19 01:27:04;;;;;;;1.50;1.50;;;;;;;;;;4979605;28;20263;-53
2022/10/19 01:29:33;;;;;;;2.10;2.00;;;;;;;;;;4979887;28;20267;-54
2022/10/19 01:32:05;;;;;;;1.90;1.80;;;;;;;;;;5002958;28;20623;-54
2022/10/19 01:34:36;;;;;;;1.90;1.80;;;;;;;;;;4998322;28;20778;-54
2022/10/19 01:37:02;;;;;;;1.30;1.30;;;;;;;;;;5001343;28;20225;-53
2022/10/19 01:39:40;;;;;;;1.50;1.50;;;;;;;;;;4997714;28;20220;-54
2022/10/19 01:42:11;;;;;;;1.00;1.00;;;;;;;;;;5009379;28;20229;-54
2022/10/19 01:44:43;;;;;;;1.00;1.00;;;;;;;;;;4979596;28;20229;-53
2022/10/19 01:47:10;;;;;;;1.40;1.40;;;;;;;;;;4997911;28;20316;-54
2022/10/19 01:49:47;;;;;;;1.30;1.30;;;;;;;;;;4966314;28;20308;-54
2022/10/19 01:52:14;;;;;;;1.20;1.20;;;;;;;;;;4995509;28;20260;-53
2022/10/19 01:54:41;;;;;;;1.50;1.50;;;;;;;;;;4997198;28;20975;-54
2022/10/19 01:57:08;;;;;;;1.50;1.50;;;;;;;;;;4982816;28;20283;-53
2022/10/19 01:59:33;;;;;;;1.50;1.50;;;;;;;;;;4998970;28;20336;-53
2022/10/19 02:01:59;;;;;;;1.40;1.40;;;;;;;;;;4984059;28;20248;-53
2022/10/19 02:04:25;;;;;;;1.27;1.27;;;;;;;;;;4993613;28;20233;-53
2022/10/19 02:06:52;;;;;;;1.50;1.50;;;;;;;;;;4973840;28;20313;-53
2022/10/19 02:09:19;;;;;;;1.50;1.50;;;;;;;;;;4993163;28;20238;-53
2022/10/19 02:11:49;;;;;;;1.40;1.40;;;;;;;;;;4991650;28;20371;-53
2022/10/19 02:14:15;;;;;;;1.40;1.40;;;;;;;;;;4969835;28;20257;-52
2022/10/19 02:16:44;;;;;;;1.70;1.70;;;;;;;;;;4980703;28;20625;-53
2022/10/19 02:19:10;;;;;;;1.50;1.50;;;;;;;;;;4986442;28;20233;-53
2022/10/19 02:21:36;;;;;;;1.30;1.30;;;;;;;;;;4989950;28;20233;-52
2022/10/19 02:24:02;;;;;;;1.50;1.50;;;;;;;;;;4983982;28;20604;-54
2022/10/19 02:26:28;;;;;;;2.00;1.90;;;;;;;;;;4988864;28;20775;-54
2022/10/19 02:28:54;;;;;;;1.70;1.70;;;;;;;;;;4989353;28;20715;-53
2022/10/19 02:31:20;;;;;;;1.60;1.60;;;;;;;;;;4964138;28;20306;-53
2022/10/19 02:33:46;;;;;;;1.60;1.60;;;;;;;;;;4982939;28;20226;-52
2022/10/19 02:36:12;;;;;;;1.40;1.40;;;;;;;;;;4973122;28;20671;-53
2022/10/19 02:38:38;;;;;;;1.50;1.50;;;;;;;;;;4976391;28;20670;-54
2022/10/19 02:41:06;;;;;;;1.50;1.50;;;;;;;;;;4968640;28;20956;-53
2022/10/19 02:43:33;;;;;;;1.60;1.60;;;;;;;;;;4980421;28;20696;-54
2022/10/19 02:46:10;;;;;;;1.90;1.80;;;;;;;;;;4984186;28;20233;-52
2022/10/19 02:48:36;;;;;;;1.70;1.70;;;;;;;;;;4996283;28;20260;-53
2022/10/19 02:51:02;;;;;;;1.60;1.60;;;;;;;;;;4970215;28;20212;-53
2022/10/19 02:53:28;;;;;;;1.40;1.40;;;;;;;;;;4997364;28;20224;-52
2022/10/19 02:55:54;;;;;;;1.40;1.40;;;;;;;;;;4993149;28;20225;-53
2022/10/19 02:58:20;;;;;;;1.33;1.33;;;;;;;;;;4990374;28;20233;-54
2022/10/19 03:00:46;;;;;;;1.20;1.20;;;;;;;;;;4980841;28;20710;-52
2022/10/19 03:03:12;;;;;;;1.30;1.30;;;;;;;;;;4986943;28;20226;-54
2022/10/19 03:05:38;;;;;;;1.50;1.50;;;;;;;;;;4982715;28;20219;-52
2022/10/19 03:08:04;;;;;;;1.60;1.60;;;;;;;;;;4977870;28;20309;-53
2022/10/19 03:10:30;;;;;;;1.63;1.63;;;;;;;;;;4986632;28;20222;-54
2022/10/19 03:12:59;;;;;;;2.33;2.23;;;;;;;;;;4993677;28;20229;-54
2022/10/19 03:15:27;;;;;;;1.33;1.33;;;;;;;;;;5006654;28;20233;-54
2022/10/19 03:17:53;;;;;;;1.73;1.67;;;;;;;;;;5005694;28;20776;-52
2022/10/19 03:20:19;;;;;;;1.50;1.50;;;;;;;;;;4985059;28;20230;-53
2022/10/19 03:22:45;;;;;;;1.40;1.40;;;;;;;;;;4999869;28;20309;-53
2022/10/19 03:25:11;;;;;;;1.20;1.20;;;;;;;;;;5004985;28;20255;-54
2022/10/19 03:27:37;;;;;;;0.90;0.90;;;;;;;;;;4988971;28;20228;-53
2022/10/19 03:30:03;;;;;;;0.97;0.97;;;;;;;;;;4996077;28;20248;-53
2022/10/19 03:32:29;;;;;;;0.80;0.80;;;;;;;;;;4997702;28;20237;-54
2022/10/19 03:34:55;;;;;;;1.20;1.20;;;;;;;;;;4991950;28;20213;-52
2022/10/19 03:37:21;;;;;;;1.10;1.10;;;;;;;;;;5001518;28;25830;-50
2022/10/19 03:39:47;;;;;;;1.10;1.10;;;;;;;;;;4997178;28;20227;-54
2022/10/19 03:42:13;;;;;;;0.97;0.97;;;;;;;;;;4990677;28;20229;-53
2022/10/19 03:44:39;;;;;;;1.13;1.13;;;;;;;;;;4997921;28;20638;-53
2022/10/19 03:47:05;;;;;;;1.20;1.20;;;;;;;;;;4980061;28;20973;-54
2022/10/19 03:49:31;;;;;;;1.20;1.20;;;;;;;;;;4988684;28;20232;-53
2022/10/19 03:51:57;;;;;;;1.10;1.10;;;;;;;;;;4983872;28;20508;-53
2022/10/19 03:54:22;;;;;;;0.73;0.73;;;;;;;;;;4988447;28;20225;-54
2022/10/19 03:56:48;;;;;;;0.80;0.80;;;;;;;;;;4987101;28;20236;-53
2022/10/19 03:59:15;;;;;;;0.80;0.80;;;;;;;;;;4982686;28;20272;-53
2022/10/19 04:01:42;;;;;;;0.80;0.80;;;;;;;;;;4979791;28;20283;-54
2022/10/19 04:04:15;;;;;;;0.70;0.70;;;;;;;;;;4983683;28;20233;-52
2022/10/19 04:06:42;;;;;;;1.07;1.07;;;;;;;;;;4990881;28;20252;-53
2022/10/19 04:09:08;;;;;;;0.80;0.80;;;;;;;;;;5005922;28;20233;-53
2022/10/19 04:11:35;;;;;;;1.00;1.00;;;;;;;;;;4987229;28;20233;-54
2022/10/19 04:14:01;;;;;;;0.87;0.87;;;;;;;;;;4979610;28;21151;-53
2022/10/19 04:16:27;;;;;;;0.80;0.80;;;;;;;;;;4954928;28;20300;-53
2022/10/19 04:18:53;;;;;;;0.90;0.90;;;;;;;;;;4964731;28;20253;-53
2022/10/19 04:21:23;;;;;;;0.83;0.83;;;;;;;;;;4974539;28;20304;-54
2022/10/19 04:23:49;;;;;;;0.70;0.70;;;;;;;;;;4969051;28;20251;-54
2022/10/19 04:26:15;;;;;;;0.90;0.90;;;;;;;;;;4964900;28;20321;-53
2022/10/19 04:28:41;;;;;;;0.80;0.80;;;;;;;;;;4963854;28;20233;-52
2022/10/19 04:31:07;;;;;;;1.00;1.00;;;;;;;;;;4984076;28;20874;-54
2022/10/19 04:33:33;;;;;;;0.80;0.80;;;;;;;;;;4982468;28;20368;-52
2022/10/19 04:35:59;;;;;;;0.90;0.90;;;;;;;;;;4987456;28;20300;-52
2022/10/19 04:38:25;;;;;;;0.80;0.80;;;;;;;;;;4984140;28;20244;-53
2022/10/19 04:40:52;;;;;;;0.80;0.80;;;;;;;;;;4968416;28;20229;-52
2022/10/19 04:43:17;;;;;;;0.87;0.87;;;;;;;;;;4975001;28;20243;-54
2022/10/19 04:45:43;;;;;;;0.90;0.90;;;;;;;;;;4982272;28;20224;-53
2022/10/19 04:48:09;;;;;;;1.00;1.00;;;;;;;;;;4991551;28;20341;-52
2022/10/19 04:50:35;;;;;;;1.07;1.07;;;;;;;;;;4989112;28;20225;-54
2022/10/19 04:53:01;;;;;;;1.00;1.00;;;;;;;;;;4992392;28;20351;-53
2022/10/19 04:55:27;;;;;;;0.90;0.90;;;;;;;;;;4988167;28;20225;-54
2022/10/19 04:57:53;;;;;;;0.90;0.90;;;;;;;;;;4965598;28;20226;-53
2022/10/19 05:00:19;;;;;;;1.00;1.00;;;;;;;;;;4984951;28;20228;-53
2022/10/19 05:02:45;;;;;;;1.00;1.00;;;;;;;;;;4963874;28;20265;-51
2022/10/19 05:05:12;;;;;;;1.00;1.00;;;;;;;;;;4965281;28;20214;-53
2022/10/19 05:07:38;;;;;;;1.00;1.00;;;;;;;;;;4984911;28;20568;-54
2022/10/19 05:10:04;;;;;;;1.10;1.10;;;;;;;;;;4990738;28;20221;-54
2022/10/19 05:12:30;;;;;;;1.03;1.03;;;;;;;;;;4987158;28;21033;-53
2022/10/19 05:14:56;;;;;;;0.97;0.97;;;;;;;;;;4984457;28;20237;-53
2022/10/19 05:17:22;;;;;;;1.00;1.00;;;;;;;;;;4988659;28;20241;-55
2022/10/19 05:19:48;;;;;;;0.90;0.90;;;;;;;;;;4969464;28;20248;-57
2022/10/19 05:22:13;;;;;;;0.80;0.80;;;;;;;;;;4995334;28;20225;-55
2022/10/19 05:24:39;;;;;;;0.90;0.90;;;;;;;;;;5011126;28;20227;-54
2022/10/19 05:27:05;;;;;;;0.90;0.90;;;;;;;;;;4991820;28;20320;-56
2022/10/19 05:29:32;;;;;;;1.00;1.00;;;;;;;;;;4991784;28;20371;-55
2022/10/19 05:31:58;;;;;;;1.00;1.00;;;;;;;;;;4983609;28;20799;-56
2022/10/19 05:34:24;;;;;;;1.20;1.20;;;;;;;;;;4988203;28;20217;-57
2022/10/19 05:36:50;;;;;;;1.10;1.10;;;;;;;;;;4993024;28;20307;-56
2022/10/19 05:39:16;;;;;;;1.10;1.10;;;;;;;;;;5003821;28;20214;-56
2022/10/19 05:41:45;;;;;;;1.10;1.10;;;;;;;;;;4994565;28;20226;-56
2022/10/19 05:44:21;;;;;;;1.20;1.20;;;;;;;;;;5006625;28;20236;-56
2022/10/19 05:46:47;;;;;;;1.10;1.10;;;;;;;;;;5004637;28;20280;-56
2022/10/19 05:49:13;;;;;;;1.27;1.27;;;;;;;;;;5011388;28;20779;-56
2022/10/19 05:51:39;;;;;;;1.10;1.10;;;;;;;;;;5008834;28;20243;-56
2022/10/19 05:54:06;;;;;;;1.10;1.10;;;;;;;;;;5007729;28;21336;-57
2022/10/19 05:56:32;;;;;;;1.17;1.17;;;;;;;;;;5007716;28;20958;-56
2022/10/19 05:58:59;;;;;;;1.10;1.10;;;;;;;;;;4998941;28;20229;-55
2022/10/19 06:01:25;;;;;;;1.30;1.30;;;;;;;;;;4987146;28;20361;-54
2022/10/19 06:03:51;;;;;;;1.30;1.30;;;;;;;;;;4991520;28;20265;-55
2022/10/19 06:06:17;;;;;;;1.27;1.27;;;;;;;;;;4991569;28;20209;-54
2022/10/19 06:08:43;;;;;;;1.20;1.20;;;;;;;;;;5011972;28;20233;-56
2022/10/19 06:11:10;;;;;;;1.00;1.00;;;;;;;;;;4993074;28;20317;-56
2022/10/19 06:13:37;;;;;;;1.27;1.27;;;;;;;;;;4988905;28;20593;-56
2022/10/19 06:16:03;;;;;;;1.10;1.10;;;;;;;;;;4999906;28;20225;-56
2022/10/19 06:18:29;;;;;;;1.20;1.20;;;;;;;;;;4988518;28;20702;-54
2022/10/19 06:20:55;;;;;;;1.20;1.20;;;;;;;;;;4975861;28;20226;-55
2022/10/19 06:23:21;;;;;;;1.30;1.30;;;;;;;;;;5002585;28;20218;-56
2022/10/19 06:25:47;;;;;;;1.03;1.03;;;;;;;;;;5004121;28;20589;-56
2022/10/19 06:28:13;;;;;;;1.20;1.20;;;;;;;;;;5004517;28;20229;-55
2022/10/19 06:30:41;;;;;;;1.00;1.00;;;;;;;;;;4990643;28;20632;-55
2022/10/19 06:33:07;;;;;;;1.17;1.17;;;;;;;;;;4997410;28;20234;-56
2022/10/19 06:35:34;;;;;;;1.10;1.10;;;;;;;;;;5003320;28;20221;-55
2022/10/19 06:38:00;;;;;;;1.00;1.00;;;;;;;;;;5000259;28;20597;-57
2022/10/19 06:40:26;;;;;;;1.10;1.10;;;;;;;;;;4998665;28;20255;-56
2022/10/19 06:42:52;;;;;;;1.17;1.17;;;;;;;;;;4994709;28;20219;-55
2022/10/19 06:45:18;;;;;;;1.10;1.10;;;;;;;;;;4991650;28;20304;-55
2022/10/19 06:47:43;;;;;;;1.10;1.10;;;;;;;;;;5003175;28;20694;-56
2022/10/19 06:50:09;;;;;;;1.20;1.20;;;;;;;;;;5003298;28;20229;-54
2022/10/19 06:52:36;;;;;;;1.10;1.10;;;;;;;;;;5004670;28;20737;-56
2022/10/19 06:55:02;;;;;;;1.20;1.20;;;;;;;;;;5003671;28;20213;-56
2022/10/19 06:57:28;;;;;;;1.17;1.17;;;;;;;;;;5002717;28;20226;-56
2022/10/19 06:59:54;;;;;;;1.20;1.20;;;;;;;;;;5001725;28;20263;-56
2022/10/19 07:02:20;;;;;;;1.20;1.20;;;;;;;;;;5002249;28;20278;-56
2022/10/19 07:04:46;;;;;;;1.10;1.10;;;;;;;;;;5007572;28;20233;-53
2022/10/19 07:07:12;;;;;;;1.10;1.10;;;;;;;;;;5004700;28;20615;-56
2022/10/19 07:09:38;;;;;;;1.00;1.00;;;;;;;;;;5000350;28;20575;-55
2022/10/19 07:12:04;;;;;;;1.00;1.00;;;;;;;;;;5000322;28;20658;-55
2022/10/19 07:14:30;;;;;;;1.00;1.00;;;;;;;;;;4998484;28;20849;-56
2022/10/19 07:16:56;;;;;;;1.30;1.30;;;;;;;;;;5002941;28;20232;-58
2022/10/19 07:19:25;;;;;;;1.20;1.20;;;;;;;;;;5001418;28;20818;-56
2022/10/19 07:21:51;;;;;;;1.37;1.37;;;;;;;;;;5010830;28;20599;-56
2022/10/19 07:24:17;;;;;;;1.20;1.20;;;;;;;;;;5001544;28;20225;-55
2022/10/19 07:26:43;;;;;;;1.00;1.00;;;;;;;;;;5001535;28;20229;-56
2022/10/19 07:29:09;;;;;;;1.10;1.10;;;;;;;;;;5002575;28;20232;-55
2022/10/19 07:31:35;;;;;;;1.00;1.00;;;;;;;;;;4999461;28;20355;-56
2022/10/19 07:34:02;;;;;;;1.10;1.10;;;;;;;;;;5009472;28;20216;-56
2022/10/19 07:36:29;;;;;;;1.10;1.10;;;;;;;;;;5009855;28;20221;-56
2022/10/19 07:38:55;;;;;;;1.13;1.13;;;;;;;;;;4998134;28;20253;-56
2022/10/19 07:41:21;;;;;;;1.20;1.20;;;;;;;;;;4999815;28;20253;-55
2022/10/19 07:43:48;;;;;;;1.00;1.00;;;;;;;;;;5003220;28;20273;-56
2022/10/19 07:46:14;;;;;;;1.10;1.10;;;;;;;;;;4999863;28;20296;-57
2022/10/19 07:48:40;;;;;;;1.00;1.00;;;;;;;;;;5002955;28;20229;-57
2022/10/19 07:51:06;;;;;;;0.90;0.90;;;;;;;;;;4990199;28;20743;-55
2022/10/19 07:53:33;;;;;;;1.10;1.10;;;;;;;;;;5011468;28;20261;-55
2022/10/19 07:56:09;;;;;;;1.00;1.00;;;;;;;;;;5003216;28;20299;-56
2022/10/19 07:58:35;;;;;;;1.00;1.00;;;;;;;;;;4990014;28;20228;-56
2022/10/19 08:01:01;;;;;;;1.00;1.00;;;;;;;;;;5000644;28;20217;-56
2022/10/19 08:03:27;;;;;;;1.00;1.00;;;;;;;;;;5003152;28;20694;-57
2022/10/19 08:05:53;;;;;;;0.90;0.90;;;;;;;;;;5003493;28;20272;-57
2022/10/19 08:08:19;;;;;;;1.00;1.00;;;;;;;;;;4995895;28;20229;-57
2022/10/19 08:10:45;;;;;;;1.00;1.00;;;;;;;;;;5000050;28;20221;-52
2022/10/19 08:13:11;;;;;;;1.00;1.00;;;;;;;;;;5001708;28;20214;-52
2022/10/19 08:15:37;;;;;;;1.20;1.20;;;;;;;;;;4991759;28;20607;-51
2022/10/19 08:18:03;;;;;;;1.00;1.00;;;;;;;;;;5003278;28;20714;-52
2022/10/19 08:20:29;;;;;;;0.90;0.90;;;;;;;;;;5005796;28;20225;-53
2022/10/19 08:22:55;;;;;;;1.10;1.10;;;;;;;;;;5003715;28;20229;-53
2022/10/19 08:25:21;;;;;;;1.33;1.33;;;;;;;;;;5004342;28;20294;-51
2022/10/19 08:27:47;;;;;;;1.20;1.20;;;;;;;;;;5012121;28;20225;-51
2022/10/19 08:30:13;;;;;;;1.50;1.50;;;;;;;;;;5009275;28;20223;-53
2022/10/19 08:32:39;;;;;;;1.50;1.50;;;;;;;;;;4996103;28;20208;-53
2022/10/19 08:35:05;;;;;;;1.50;1.50;;;;;;;;;;5007550;28;20689;-52
2022/10/19 08:37:31;;;;;;;0.90;0.90;;;;;;;;;;4999056;28;21552;-51
2022/10/19 08:39:57;;;;;;;1.23;1.23;;;;;;;;;;5009134;28;20351;-53
2022/10/19 08:42:24;;;;;;;1.83;1.73;;;;;;;;;;5008060;28;21073;-52
2022/10/19 08:44:56;;;;;;;2.00;1.90;;;;;;;;;;4982786;28;20255;-52
2022/10/19 08:47:41;;;;;;;1.40;1.40;;;;;;;;;;5001646;28;20237;-51
2022/10/19 08:50:23;;;;;;;1.50;1.50;;;;;;;;;;5009145;28;20662;-52
2022/10/19 08:52:51;;;;;;;1.40;1.40;;;;;;;;;;4987370;28;20643;-52
2022/10/19 08:55:18;;;;;;;0.80;0.80;;;;;;;;;;4979876;28;20561;-54
2022/10/19 08:57:44;;;;;;;0.90;0.90;;;;;;;;;;4985477;28;20994;-52
2022/10/19 09:00:16;;;;;;;0.80;0.80;;;;;;;;;;5003466;28;20228;-54
2022/10/19 09:02:45;;;;;;;0.90;0.90;;;;;;;;;;5009409;28;20228;-52
2022/10/19 09:05:23;;;;;;;0.80;0.80;;;;;;;;;;4998639;28;20228;-53
2022/10/19 09:07:51;;;;;;;1.40;1.40;;;;;;;;;;5004030;28;20318;-53
2022/10/19 09:10:23;;;;;;;1.60;1.60;;;;;;;;;;5008468;28;20356;-52
2022/10/19 09:12:55;;;;;;;1.83;1.73;;;;;;;;;;4985243;28;20276;-53
2022/10/19 09:15:28;;;;;;;1.60;1.60;;;;;;;;;;5011371;28;20287;-52
2022/10/19 09:17:54;;;;;;;1.77;1.70;;;;;;;;;;4974376;28;20241;-52
2022/10/19 09:20:22;;;;;;;1.20;1.20;;;;;;;;;;5002198;28;20234;-53
2022/10/19 09:22:56;;;;;;;1.60;1.60;;;;;;;;;;5002070;28;20229;-52
2022/10/19 09:25:22;;;;;;;1.60;1.60;;;;;;;;;;5011496;28;20234;-52
2022/10/19 09:27:48;;;;;;;2.10;2.00;;;;;;;;;;5007289;28;20233;-54
2022/10/19 09:30:18;;;;;;;2.47;2.38;;;;;;;;;;5000349;28;20509;-52
2022/10/19 09:32:44;;;;;;;1.00;1.00;;;;;;;;;;4990422;28;20693;-54
2022/10/19 09:35:19;;;;;;;0.70;0.70;;;;;;;;;;5002164;28;20308;-53
2022/10/19 09:37:46;;;;;;;0.80;0.80;;;;;;;;;;4998557;28;20221;-53
2022/10/19 09:40:17;;;;;;;1.02;1.02;;;;;;;;;;5002271;28;20301;-52
2022/10/19 09:42:43;;;;;;;0.90;0.90;;;;;;;;;;5009468;28;20232;-53
2022/10/19 09:45:17;;;;;;;0.90;0.90;;;;;;;;;;4975270;28;20308;-54
2022/10/19 09:47:43;;;;;;;0.90;0.90;;;;;;;;;;5001941;28;20217;-53
2022/10/19 09:50:19;;;;;;;0.70;0.70;;;;;;;;;;4983428;28;20368;-54
2022/10/19 09:52:45;;;;;;;1.30;1.30;;;;;;;;;;5015917;28;20232;-53
2022/10/19 09:55:14;;;;;;;1.60;1.60;;;;;;;;;;5012164;28;20212;-52
2022/10/19 09:57:44;;;;;;;0.90;0.90;;;;;;;;;;5005297;28;20236;-53
2022/10/19 10:00:23;;;;;;;1.30;1.30;;;;;;;;;;4994632;28;20690;-54
2022/10/19 10:02:50;;;;;;;1.50;1.50;;;;;;;;;;5009654;28;21093;-53
2022/10/19 10:05:16;;;;;;;1.10;1.10;;;;;;;;;;5005106;28;20220;-52
2022/10/19 10:07:42;;;;;;;1.40;1.40;;;;;;;;;;5009981;28;20227;-53
2022/10/19 10:10:18;;;;;;;2.65;2.55;;;;;;;;;;5003839;28;20632;-54
2022/10/19 10:12:44;;;;;;;1.35;1.35;;;;;;;;;;4986065;28;20225;-53
2022/10/19 10:15:13;;;;;;;1.10;1.10;;;;;;;;;;5002167;28;20726;-53
2022/10/19 10:17:39;;;;;;;1.40;1.40;;;;;;;;;;4985293;28;20325;-53
2022/10/19 10:20:26;;;;;;;1.23;1.23;;;;;;;;;;5001064;28;20226;-53
2022/10/19 10:22:55;;;;;;;1.23;1.23;;;;;;;;;;5005767;28;20299;-54
2022/10/19 10:25:21;;;;;;;1.50;1.50;;;;;;;;;;5002549;28;20228;-53
2022/10/19 10:27:53;;;;;;;1.52;1.52;;;;;;;;;;4999872;28;20225;-53
2022/10/19 10:30:19;;;;;;;1.30;1.30;;;;;;;;;;5001681;28;20372;-52
2022/10/19 10:32:52;;;;;;;1.20;1.20;;;;;;;;;;5006003;28;20777;-53
2022/10/19 10:35:19;;;;;;;0.90;0.90;;;;;;;;;;4985922;28;20292;-53
2022/10/19 10:37:45;;;;;;;0.77;0.77;;;;;;;;;;5007037;28;20221;-53
2022/10/19 10:40:17;;;;;;;1.20;1.20;;;;;;;;;;5012379;28;20307;-53
2022/10/19 10:42:43;;;;;;;0.70;0.70;;;;;;;;;;5012836;28;20351;-53
2022/10/19 10:45:30;;;;;;;0.88;0.88;;;;;;;;;;5003027;28;20255;-54
2022/10/19 10:47:55;;;;;;;0.80;0.80;;;;;;;;;;5002998;28;20728;-52
2022/10/19 10:50:22;;;;;;;0.80;0.80;;;;;;;;;;5007952;28;20213;-53
2022/10/19 10:52:58;;;;;;;0.80;0.80;;;;;;;;;;4984242;28;20232;-53
2022/10/19 10:55:25;;;;;;;0.80;0.80;;;;;;;;;;5002616;28;20230;-54
2022/10/19 10:57:51;;;;;;;1.40;1.40;;;;;;;;;;5004926;28;20225;-55
2022/10/19 11:00:18;;;;;;;0.77;0.77;;;;;;;;;;4987699;28;20247;-53
2022/10/19 11:02:49;;;;;;;1.20;1.20;;;;;;;;;;5007868;28;20321;-53
2022/10/19 11:05:18;;;;;;;1.40;1.40;;;;;;;;;;4985489;28;20259;-53
2022/10/19 11:07:45;;;;;;;1.70;1.70;;;;;;;;;;4985730;28;20224;-54
2022/10/19 11:10:13;;;;;;;0.80;0.80;;;;;;;;;;4987299;28;20213;-53
2022/10/19 11:12:44;;;;;;;0.70;0.70;;;;;;;;;;4986120;28;20232;-53
2022/10/19 11:15:10;;;;;;;0.80;0.80;;;;;;;;;;4997146;28;20793;-53
2022/10/19 11:17:37;;;;;;;0.98;0.98;;;;;;;;;;5009652;28;20294;-53
2022/10/19 11:20:04;;;;;;;0.90;0.90;;;;;;;;;;5001697;28;20220;-53
2022/10/19 11:22:51;;;;;;;1.10;1.10;;;;;;;;;;5007581;28;20364;-53
2022/10/19 11:25:29;;;;;;;1.00;1.00;;;;;;;;;;4967609;28;21035;-54
2022/10/19 11:28:04;;;;;;;1.23;1.23;;;;;;;;;;4969355;28;20216;-54
2022/10/19 11:30:32;;;;;;;1.10;1.10;;;;;;;;;;4996965;28;20215;-53
2022/10/19 11:33:01;;;;;;;1.30;1.30;;;;;;;;;;5001941;28;20220;-55
2022/10/19 11:35:57;;;;;;;1.10;1.10;;;;;;;;;;4976905;28;20317;-54
2022/10/19 11:38:31;;;;;;;1.23;1.23;;;;;;;;;;4904842;28;20247;-53
2022/10/19 11:41:19;;;;;;;1.10;1.10;;;;;;;;;;5003313;28;20208;-53
2022/10/19 11:44:02;;;;;;;1.20;1.20;;;;;;;;;;4985539;28;20220;-53
2022/10/19 11:46:34;;;;;;;1.40;1.40;;;;;;;;;;5003522;28;20221;-54
2022/10/19 11:49:09;;;;;;;1.40;1.40;;;;;;;;;;4995778;28;20323;-55
2022/10/19 11:51:47;;;;;;;1.20;1.20;;;;;;;;;;4980462;28;20225;-55
2022/10/19 11:54:21;;;;;;;1.30;1.30;;;;;;;;;;4974419;28;20229;-54
2022/10/19 11:56:51;;;;;;;1.42;1.42;;;;;;;;;;4961624;28;20243;-52
2022/10/19 11:59:21;;;;;;;1.20;1.20;;;;;;;;;;4958673;28;20703;-52
2022/10/19 12:01:55;;;;;;;1.10;1.10;;;;;;;;;;4963134;28;20559;-53
2022/10/19 12:04:33;;;;;;;1.10;1.10;;;;;;;;;;4994556;28;20314;-55
2022/10/19 12:07:02;;;;;;;1.27;1.27;;;;;;;;;;4985012;28;20986;-55
2022/10/19 12:09:28;;;;;;;1.10;1.10;;;;;;;;;;4991487;28;20806;-55
2022/10/19 12:12:20;;;;;;;1.25;1.25;;;;;;;;;;4994835;28;20222;-55
2022/10/19 12:14:54;;;;;;;1.20;1.20;;;;;;;;;;4972685;28;20721;-55
2022/10/19 12:17:25;;;;;;;1.25;1.25;;;;;;;;;;4980794;28;20234;-54
2022/10/19 12:19:53;;;;;;;1.40;1.40;;;;;;;;;;4992198;28;20221;-54
2022/10/19 12:22:20;;;;;;;1.10;1.10;;;;;;;;;;4977568;28;20227;-56
2022/10/19 12:24:46;;;;;;;1.30;1.30;;;;;;;;;;4985387;28;20663;-54
2022/10/19 12:27:13;;;;;;;1.60;1.60;;;;;;;;;;4982808;28;20284;-53
2022/10/19 12:29:39;;;;;;;1.40;1.40;;;;;;;;;;4991119;28;20284;-53
2022/10/19 12:32:05;;;;;;;1.40;1.40;;;;;;;;;;4961382;28;20225;-53
2022/10/19 12:34:44;;;;;;;1.35;1.35;;;;;;;;;;4961741;28;20650;-55
2022/10/19 12:37:28;;;;;;;0.80;0.80;;;;;;;;;;4979755;28;20237;-53
2022/10/19 12:39:59;;;;;;;0.90;0.90;;;;;;;;;;4994962;28;20304;-53
2022/10/19 12:42:36;;;;;;;1.27;1.27;;;;;;;;;;4987113;28;20315;-52
2022/10/19 12:45:05;;;;;;;1.30;1.30;;;;;;;;;;4991120;28;20571;-55
2022/10/19 12:47:31;;;;;;;1.23;1.23;;;;;;;;;;4987661;28;20347;-52
2022/10/19 12:49:57;;;;;;;1.40;1.40;;;;;;;;;;5006243;28;20307;-53
2022/10/19 12:52:47;;;;;;;1.60;1.60;;;;;;;;;;4970513;28;20305;-55
2022/10/19 12:55:16;;;;;;;1.60;1.60;;;;;;;;;;4962753;28;21023;-53
2022/10/19 12:57:48;;;;;;;1.50;1.50;;;;;;;;;;4999578;28;20248;-54
2022/10/19 13:00:28;;;;;;;1.60;1.60;;;;;;;;;;4986726;28;20232;-52
2022/10/19 13:03:04;;;;;;;1.42;1.42;;;;;;;;;;4974169;28;20213;-54
2022/10/19 13:05:30;;;;;;;1.33;1.33;;;;;;;;;;4995634;28;20994;-55
2022/10/19 13:07:56;;;;;;;1.50;1.50;;;;;;;;;;4985748;28;20235;-54
2022/10/19 13:10:23;;;;;;;1.45;1.45;;;;;;;;;;4988040;28;20269;-53
2022/10/19 13:12:49;;;;;;;2.00;1.90;;;;;;;;;;4985859;28;20257;-53
2022/10/19 13:15:41;;;;;;;1.80;1.70;;;;;;;;;;4997257;28;20671;-54
2022/10/19 13:18:15;;;;;;;1.80;1.70;;;;;;;;;;4985337;28;20722;-54
2022/10/19 13:20:47;;;;;;;1.92;1.83;;;;;;;;;;4994088;28;20758;-53
2022/10/19 13:23:13;;;;;;;1.92;1.83;;;;;;;;;;4993389;28;20229;-55
2022/10/19 13:25:39;;;;;;;1.90;1.80;;;;;;;;;;4984953;28;20990;-53
2022/10/19 13:28:05;;;;;;;1.67;1.67;;;;;;;;;;4997854;28;20761;-53
2022/10/19 13:30:37;;;;;;;1.42;1.42;;;;;;;;;;4993833;28;20236;-53
2022/10/19 13:33:39;;;;;;;1.75;1.70;;;;;;;;;;4998197;28;20229;-53
2022/10/19 13:36:05;;;;;;;1.70;1.70;;;;;;;;;;4894244;28;20311;-57
2022/10/19 13:38:34;;;;;;;1.80;1.70;;;;;;;;;;4949851;28;20273;-56
2022/10/19 13:41:20;;;;;;;2.10;2.00;;;;;;;;;;4984717;28;20249;-53
2022/10/19 13:43:50;;;;;;;1.60;1.60;;;;;;;;;;4990434;28;20229;-52
2022/10/19 13:46:17;;;;;;;2.00;1.90;;;;;;;;;;4996942;28;20221;-53
2022/10/19 13:48:46;;;;;;;1.57;1.57;;;;;;;;;;4986608;28;20237;-54
2022/10/19 13:51:16;;;;;;;1.63;1.63;;;;;;;;;;4997919;28;20235;-53
2022/10/19 13:53:59;;;;;;;1.90;1.80;;;;;;;;;;4990499;28;20228;-53
2022/10/19 13:56:44;;;;;;;1.60;1.60;;;;;;;;;;4987027;28;20292;-53
2022/10/19 13:59:21;;;;;;;1.60;1.60;;;;;;;;;;4972651;28;20284;-53
2022/10/19 14:02:00;;;;;;;1.50;1.50;;;;;;;;;;4989445;28;20233;-53
2022/10/19 14:04:29;;;;;;;1.90;1.80;;;;;;;;;;4962979;28;20232;-53
2022/10/19 14:07:00;;;;;;;2.10;2.00;;;;;;;;;;4964517;28;20772;-53
2022/10/19 14:09:37;;;;;;;2.00;1.90;;;;;;;;;;4972404;28;20778;-54
2022/10/19 14:12:17;;;;;;;2.00;1.90;;;;;;;;;;4969727;28;20657;-54
2022/10/19 14:14:43;;;;;;;2.10;2.00;;;;;;;;;;4985930;28;20224;-52
2022/10/19 14:17:19;;;;;;;2.00;1.90;;;;;;;;;;4993069;28;20295;-51
2022/10/19 14:19:46;;;;;;;1.80;1.70;;;;;;;;;;4990845;28;20703;-54
2022/10/19 14:22:32;;;;;;;2.10;2.00;;;;;;;;;;4976689;28;20225;-52
2022/10/19 14:25:04;;;;;;;1.00;1.00;;;;;;;;;;4999059;28;20220;-52
2022/10/19 14:27:30;;;;;;;1.07;1.07;;;;;;;;;;4994626;28;20237;-52
2022/10/19 14:29:56;;;;;;;1.00;1.00;;;;;;;;;;4987202;28;20235;-54
2022/10/19 14:32:26;;;;;;;1.00;1.00;;;;;;;;;;4966308;28;20224;-54
2022/10/19 14:34:52;;;;;;;1.17;1.17;;;;;;;;;;4996946;28;20247;-53
2022/10/19 14:37:19;;;;;;;1.00;1.00;;;;;;;;;;4983547;28;20335;-54
2022/10/19 14:40:04;;;;;;;1.10;1.10;;;;;;;;;;4968386;28;20236;-53
2022/10/19 14:42:37;;;;;;;1.20;1.20;;;;;;;;;;4989280;28;20369;-54
2022/10/19 14:45:03;;;;;;;1.10;1.10;;;;;;;;;;4999388;28;20221;-55
2022/10/19 14:47:29;;;;;;;1.00;1.00;;;;;;;;;;4987838;28;20332;-55
2022/10/19 14:49:55;;;;;;;1.00;1.00;;;;;;;;;;4991416;28;20243;-54
2022/10/19 14:52:31;;;;;;;0.90;0.90;;;;;;;;;;4990749;28;20228;-53